createdAt,value
2023-01-06T00:00:36.778Z,89645.63
2023-01-06T00:03:04.006Z,89638.72
2023-01-06T00:05:30.946Z,89638.34
2023-01-06T00:07:58.125Z,89636.69
2023-01-06T00:10:25.266Z,89643.94
2023-01-06T00:12:52.263Z,89632.81
2023-01-06T00:15:19.475Z,89634.41
2023-01-06T00:17:46.567Z,89629.00
2023-01-06T00:20:13.849Z,89625.78
2023-01-06T00:22:41.815Z,89625.06
2023-01-06T00:25:09.890Z,89626.16
2023-01-06T00:27:36.994Z,89620.88
2023-01-06T00:30:04.471Z,89632.34
2023-01-06T00:32:31.611Z,89625.13
2023-01-06T00:34:58.667Z,89613.56
2023-01-06T00:37:25.616Z,89619.56
2023-01-06T00:39:52.456Z,89617.13
2023-01-06T00:42:19.445Z,89623.75
2023-01-06T00:44:46.430Z,89626.38
2023-01-06T00:47:13.384Z,89614.41
2023-01-06T00:49:40.496Z,89624.16
2023-01-06T00:52:07.483Z,89632.75
2023-01-06T00:54:34.351Z,89635.13
2023-01-06T00:57:01.245Z,89625.31
2023-01-06T00:59:28.107Z,89613.44
2023-01-06T01:01:58.528Z,89613.03
2023-01-06T01:04:26.542Z,89611.38
2023-01-06T01:06:54.130Z,89606.44
2023-01-06T01:09:30.129Z,89605.75
2023-01-06T01:11:57.884Z,89607.25
2023-01-06T01:14:24.824Z,89616.59
2023-01-06T01:16:52.101Z,89612.84
2023-01-06T01:19:20.042Z,89608.28
2023-01-06T01:21:47.611Z,89607.44
2023-01-06T01:24:14.687Z,89611.88
2023-01-06T01:26:41.885Z,89599.84
2023-01-06T01:29:14.820Z,89597.13
2023-01-06T01:31:42.951Z,89604.50
2023-01-06T01:34:11.776Z,89612.53
2023-01-06T01:36:40.567Z,89613.19
2023-01-06T01:39:07.676Z,89600.34
2023-01-06T01:41:34.644Z,89603.28
2023-01-06T01:44:04.570Z,89608.44
2023-01-06T01:46:36.947Z,89606.31
2023-01-06T01:49:26.653Z,89599.81
2023-01-06T01:51:57.144Z,89590.16
2023-01-06T01:54:28.875Z,89595.09
2023-01-06T01:57:01.458Z,89603.31
2023-01-06T01:59:32.592Z,89610.81
2023-01-06T02:01:59.660Z,89603.00
2023-01-06T02:04:28.698Z,89607.06
2023-01-06T02:06:56.120Z,89602.03
2023-01-06T02:09:36.189Z,89608.00
2023-01-06T02:12:03.901Z,89607.25
2023-01-06T02:14:30.825Z,89601.78
2023-01-06T02:17:15.708Z,89601.19
2023-01-06T02:20:42.224Z,89604.22
2023-01-06T02:23:15.088Z,89607.25
2023-01-06T02:26:19.277Z,89595.72
2023-01-06T02:28:58.350Z,89603.09
2023-01-06T02:31:46.893Z,89610.06
2023-01-06T02:34:24.657Z,89615.16
2023-01-06T02:37:18.362Z,89618.84
2023-01-06T02:40:03.984Z,89624.34
2023-01-06T02:42:45.053Z,89625.03
2023-01-06T02:45:32.571Z,89627.25
2023-01-06T02:48:11.433Z,89623.63
2023-01-06T02:50:54.327Z,89620.22
2023-01-06T02:53:34.417Z,89608.31
2023-01-06T02:56:03.453Z,89608.38
2023-01-06T02:58:56.872Z,89606.72
2023-01-06T03:01:26.174Z,89610.94
2023-01-06T03:03:58.095Z,89601.28
2023-01-06T03:06:30.002Z,89596.63
2023-01-06T03:08:58.999Z,89587.75
2023-01-06T03:11:29.131Z,89578.16
2023-01-06T03:13:56.037Z,89590.47
2023-01-06T03:16:23.083Z,89575.47
2023-01-06T03:18:52.662Z,89573.09
2023-01-06T03:21:23.587Z,89575.63
2023-01-06T03:23:50.518Z,89560.28
2023-01-06T03:26:17.431Z,89557.22
2023-01-06T03:28:44.612Z,89563.09
2023-01-06T03:31:23.003Z,89568.06
2023-01-06T03:34:13.045Z,89573.97
2023-01-06T03:36:58.522Z,89588.06
2023-01-06T03:39:39.491Z,89578.84
2023-01-06T03:42:28.100Z,89583.66
2023-01-06T03:45:15.122Z,89590.47
2023-01-06T03:47:53.900Z,89601.25
2023-01-06T03:50:29.096Z,89601.59
2023-01-06T03:53:23.044Z,89610.81
2023-01-06T03:56:00.618Z,89603.28
2023-01-06T03:58:29.634Z,89608.50
2023-01-06T04:00:58.317Z,89621.75
2023-01-06T04:03:26.234Z,89615.41
2023-01-06T04:05:53.695Z,89617.09
2023-01-06T04:08:20.788Z,89620.78
2023-01-06T04:10:47.797Z,89631.28
2023-01-06T04:13:14.783Z,89625.31
2023-01-06T04:15:41.811Z,89625.09
2023-01-06T04:18:08.839Z,89624.13
2023-01-06T04:20:35.774Z,89629.34
2023-01-06T04:23:02.753Z,89632.34
2023-01-06T04:25:29.703Z,89630.94
2023-01-06T04:27:56.657Z,89625.06
2023-01-06T04:30:23.663Z,89623.78
2023-01-06T04:32:50.574Z,89623.97
2023-01-06T04:35:17.609Z,89632.44
2023-01-06T04:37:44.937Z,89627.91
2023-01-06T04:40:12.019Z,89633.63
2023-01-06T04:42:38.960Z,89614.44
2023-01-06T04:45:06.482Z,89614.00
2023-01-06T04:47:33.332Z,89612.75
2023-01-06T04:50:00.275Z,89612.28
2023-01-06T04:52:27.154Z,89619.84
2023-01-06T04:54:54.179Z,89617.63
2023-01-06T04:57:21.078Z,89622.53
2023-01-06T04:59:48.069Z,89638.03
2023-01-06T05:02:14.982Z,89641.66
2023-01-06T05:04:47.791Z,89638.66
2023-01-06T05:07:15.144Z,89633.03
2023-01-06T05:09:42.086Z,89641.44
2023-01-06T05:12:09.020Z,89649.38
2023-01-06T05:14:35.987Z,89645.09
2023-01-06T05:17:02.911Z,89647.06
2023-01-06T05:19:29.874Z,89652.38
2023-01-06T05:21:56.915Z,89650.09
2023-01-06T05:24:23.942Z,89666.19
2023-01-06T05:26:50.805Z,89663.06
2023-01-06T05:29:17.849Z,89667.94
2023-01-06T05:31:44.965Z,89670.50
2023-01-06T05:34:12.253Z,89670.16
2023-01-06T05:36:39.197Z,89680.63
2023-01-06T05:39:08.627Z,89676.41
2023-01-06T05:41:35.546Z,89684.59
2023-01-06T05:44:02.622Z,89673.69
2023-01-06T05:46:29.637Z,89682.19
2023-01-06T05:48:56.696Z,89687.66
2023-01-06T05:51:23.645Z,89693.38
2023-01-06T05:53:50.576Z,89691.97
2023-01-06T05:56:19.781Z,89692.38
2023-01-06T05:58:49.804Z,89684.97
2023-01-06T06:01:25.886Z,89682.75
2023-01-06T06:03:54.237Z,89685.38
2023-01-06T06:06:22.942Z,89685.03
2023-01-06T06:08:50.055Z,89692.22
2023-01-06T06:11:18.990Z,89687.66
2023-01-06T06:13:52.291Z,89693.78
2023-01-06T06:16:21.598Z,89696.63
2023-01-06T06:18:51.604Z,89693.84
2023-01-06T06:21:24.030Z,89694.22
2023-01-06T06:23:53.541Z,89702.09
2023-01-06T06:26:20.402Z,89707.25
2023-01-06T06:28:47.446Z,89702.13
2023-01-06T06:31:17.792Z,89696.59
2023-01-06T06:33:45.048Z,89698.31
2023-01-06T06:36:12.593Z,89705.75
2023-01-06T06:38:39.811Z,89710.84
2023-01-06T06:41:06.880Z,89715.56
2023-01-06T06:43:34.348Z,89714.50
2023-01-06T06:46:01.403Z,89711.53
2023-01-06T06:48:29.345Z,89706.16
2023-01-06T06:51:00.689Z,89722.09
2023-01-06T06:53:27.873Z,89729.75
2023-01-06T06:55:56.154Z,89729.94
2023-01-06T06:58:23.328Z,89734.03
2023-01-06T07:00:50.471Z,89738.16
2023-01-06T07:03:17.779Z,89727.59
2023-01-06T07:05:46.419Z,89722.75
2023-01-06T07:08:14.062Z,89732.78
2023-01-06T07:10:41.011Z,89729.09
2023-01-06T07:13:08.734Z,89715.44
2023-01-06T07:15:35.685Z,89721.34
2023-01-06T07:18:06.437Z,89721.63
2023-01-06T07:20:35.648Z,89710.94
2023-01-06T07:23:03.417Z,89719.06
2023-01-06T07:25:30.683Z,89726.41
2023-01-06T07:28:00.383Z,89728.59
2023-01-06T07:30:28.118Z,89744.22
2023-01-06T07:32:55.184Z,89750.75
2023-01-06T07:35:22.056Z,89754.91
2023-01-06T07:37:49.107Z,89754.91
2023-01-06T07:40:16.138Z,89749.22
2023-01-06T07:42:42.952Z,89751.41
2023-01-06T07:45:10.543Z,89755.84
2023-01-06T07:47:37.578Z,89754.09
2023-01-06T07:50:05.755Z,89752.25
2023-01-06T07:52:32.780Z,89753.44
2023-01-06T07:54:59.749Z,89752.47
2023-01-06T07:57:30.332Z,89745.72
2023-01-06T07:59:57.746Z,89755.19
2023-01-06T08:02:24.712Z,89751.69
2023-01-06T08:04:51.709Z,89759.91
2023-01-06T08:07:18.718Z,89759.09
2023-01-06T08:09:45.731Z,89761.44
2023-01-06T08:12:12.672Z,89752.59
2023-01-06T08:14:39.702Z,89761.72
2023-01-06T08:17:06.570Z,89747.28
2023-01-06T08:19:33.706Z,89759.63
2023-01-06T08:22:00.964Z,89762.94
2023-01-06T08:24:28.449Z,89751.56
2023-01-06T08:26:55.479Z,89752.16
2023-01-06T08:29:22.538Z,89743.28
2023-01-06T08:31:49.501Z,89749.44
2023-01-06T08:34:16.383Z,89752.72
2023-01-06T08:36:43.569Z,89747.25
2023-01-06T08:39:11.774Z,89733.38
2023-01-06T08:41:39.567Z,89723.22
2023-01-06T08:44:06.845Z,89723.88
2023-01-06T08:46:34.876Z,89717.31
2023-01-06T08:49:01.932Z,89703.84
2023-01-06T08:51:28.991Z,89719.41
2023-01-06T08:53:56.582Z,89740.75
2023-01-06T08:56:26.177Z,89736.31
2023-01-06T08:58:58.082Z,89738.28
2023-01-06T09:01:36.460Z,89724.00
2023-01-06T09:04:06.570Z,89726.22
2023-01-06T09:06:34.225Z,89710.06
2023-01-06T09:09:02.014Z,89699.66
2023-01-06T09:11:29.011Z,89699.56
2023-01-06T09:13:56.191Z,89702.44
2023-01-06T09:16:23.515Z,89706.94
2023-01-06T09:18:50.543Z,89706.06
2023-01-06T09:21:19.817Z,89707.28
2023-01-06T09:23:47.147Z,89712.25
2023-01-06T09:26:16.067Z,89718.63
2023-01-06T09:28:43.501Z,89717.31
2023-01-06T09:31:11.491Z,89709.00
2023-01-06T09:33:38.635Z,89714.25
2023-01-06T09:36:06.301Z,89716.34
2023-01-06T09:38:33.216Z,89730.59
2023-01-06T09:41:20.441Z,89734.72
2023-01-06T09:43:54.695Z,89725.34
2023-01-06T09:46:26.833Z,89716.16
2023-01-06T09:49:09.729Z,89716.41
2023-01-06T09:51:38.262Z,89720.19
2023-01-06T09:54:28.735Z,89731.56
2023-01-06T09:57:06.871Z,89730.13
2023-01-06T09:59:51.114Z,89739.81
2023-01-06T10:02:33.059Z,89734.66
2023-01-06T10:05:00.160Z,89724.56
2023-01-06T10:07:46.871Z,89727.53
2023-01-06T10:10:43.086Z,89721.59
2023-01-06T10:13:43.622Z,89710.34
2023-01-06T10:16:25.144Z,89703.09
2023-01-06T10:19:06.056Z,89682.16
2023-01-06T10:21:33.043Z,89684.06
2023-01-06T10:24:28.706Z,89689.72
2023-01-06T10:27:02.318Z,89681.66
2023-01-06T10:29:34.319Z,89693.34
2023-01-06T10:32:03.687Z,89692.81
2023-01-06T10:34:34.225Z,89690.72
2023-01-06T10:37:17.963Z,89699.97
2023-01-06T10:39:48.513Z,89698.94
2023-01-06T10:42:23.509Z,89705.34
2023-01-06T10:44:50.631Z,89698.88
2023-01-06T10:47:29.608Z,89686.72
2023-01-06T10:49:57.214Z,89691.47
2023-01-06T10:52:25.586Z,89681.38
2023-01-06T10:54:56.705Z,89682.38
2023-01-06T10:57:30.378Z,89677.97
2023-01-06T11:00:13.851Z,89684.25
2023-01-06T11:02:48.745Z,89681.06
2023-01-06T11:05:18.668Z,89666.31
2023-01-06T11:07:55.231Z,89665.00
2023-01-06T11:10:32.030Z,89667.13
2023-01-06T11:13:00.640Z,89675.00
2023-01-06T11:15:39.481Z,89672.78
2023-01-06T11:18:22.681Z,89670.72
2023-01-06T11:21:13.072Z,89665.16
2023-01-06T11:23:42.255Z,89666.06
2023-01-06T11:26:12.180Z,89667.44
2023-01-06T11:28:45.208Z,89674.16
2023-01-06T11:31:15.254Z,89675.16
2023-01-06T11:33:55.469Z,89679.66
2023-01-06T11:36:29.864Z,89680.56
2023-01-06T11:39:12.676Z,89683.59
2023-01-06T11:41:44.435Z,89677.97
2023-01-06T11:44:36.476Z,89674.91
2023-01-06T11:47:15.654Z,89681.88
2023-01-06T11:49:49.096Z,89686.22
2023-01-06T11:52:31.605Z,89691.88
2023-01-06T11:55:19.944Z,89686.47
2023-01-06T11:58:08.421Z,89684.19
2023-01-06T12:00:56.523Z,89687.47
2023-01-06T12:03:34.609Z,89694.50
2023-01-06T12:06:13.517Z,89699.25
2023-01-06T12:09:03.549Z,89701.97
2023-01-06T12:11:45.862Z,89705.50
2023-01-06T12:14:28.882Z,89687.38
2023-01-06T12:17:20.823Z,89695.06
2023-01-06T12:20:02.388Z,89698.63
2023-01-06T12:22:43.068Z,89702.69
2023-01-06T12:25:19.711Z,89703.53
2023-01-06T12:27:52.150Z,89710.53
2023-01-06T12:30:31.478Z,89713.91
2023-01-06T12:33:06.058Z,89701.72
2023-01-06T12:35:37.766Z,89699.75
2023-01-06T12:38:28.051Z,89713.31
2023-01-06T12:41:14.030Z,89718.16
2023-01-06T12:43:50.352Z,89707.75
2023-01-06T12:46:24.529Z,89716.78
2023-01-06T12:48:57.331Z,89720.13
2023-01-06T12:51:44.339Z,89713.66
2023-01-06T12:54:26.293Z,89721.59
2023-01-06T12:57:20.863Z,89721.69
2023-01-06T13:00:00.987Z,89725.44
2023-01-06T13:03:04.878Z,89712.63
2023-01-06T13:05:45.496Z,89707.31
2023-01-06T13:08:43.004Z,89712.72
2023-01-06T13:12:00.781Z,89707.47
2023-01-06T13:14:30.560Z,89717.81
2023-01-06T13:17:28.996Z,89728.03
2023-01-06T13:19:58.924Z,89722.38
2023-01-06T13:22:25.942Z,89729.03
2023-01-06T13:24:52.802Z,89731.72
2023-01-06T13:27:40.631Z,89728.63
2023-01-06T13:30:30.237Z,89729.28
2023-01-06T13:33:28.334Z,89736.66
2023-01-06T13:36:16.755Z,89745.59
2023-01-06T13:39:09.411Z,89751.41
2023-01-06T13:41:39.736Z,89748.47
2023-01-06T13:44:16.744Z,89754.13
2023-01-06T13:46:48.260Z,89737.97
2023-01-06T13:49:15.732Z,89744.13
2023-01-06T13:51:43.152Z,89751.84
2023-01-06T13:54:40.874Z,89752.47
2023-01-06T13:57:22.771Z,89762.19
2023-01-06T14:00:05.280Z,89755.16
2023-01-06T14:02:35.741Z,89763.16
2023-01-06T14:05:08.112Z,89763.03
2023-01-06T14:07:40.263Z,89762.53
2023-01-06T14:10:28.607Z,89758.78
2023-01-06T14:12:56.110Z,89759.81
2023-01-06T14:15:35.559Z,89768.19
2023-01-06T14:18:03.856Z,89773.34
2023-01-06T14:20:38.293Z,89777.28
2023-01-06T14:23:07.185Z,89773.75
2023-01-06T14:25:42.304Z,89770.97
2023-01-06T14:28:21.489Z,89769.31
2023-01-06T14:30:50.019Z,89772.78
2023-01-06T14:33:35.782Z,89771.22
2023-01-06T14:36:14.067Z,89780.38
2023-01-06T14:38:48.139Z,89782.78
2023-01-06T14:41:27.582Z,89780.63
2023-01-06T14:44:17.683Z,89777.81
2023-01-06T14:46:51.691Z,89774.66
2023-01-06T14:49:25.411Z,89775.09
2023-01-06T14:51:56.075Z,89781.75
2023-01-06T14:54:30.801Z,89788.09
2023-01-06T14:57:02.385Z,89785.19
2023-01-06T14:59:29.871Z,89785.50
2023-01-06T15:02:16.852Z,89779.22
2023-01-06T15:04:44.759Z,89789.81
2023-01-06T15:07:21.125Z,89791.81
2023-01-06T15:09:50.107Z,89785.38
2023-01-06T15:12:28.951Z,89800.00
2023-01-06T15:14:56.185Z,89797.28
2023-01-06T15:17:23.864Z,89794.69
2023-01-06T15:19:53.177Z,89813.22
2023-01-06T15:22:24.072Z,89809.25
2023-01-06T15:24:51.772Z,89805.81
2023-01-06T15:27:19.690Z,89822.00
2023-01-06T15:29:54.110Z,89811.09
2023-01-06T15:32:24.570Z,89815.88
2023-01-06T15:34:53.635Z,89805.16
2023-01-06T15:37:26.531Z,89808.06
2023-01-06T15:39:54.229Z,89807.22
2023-01-06T15:42:27.233Z,89808.28
2023-01-06T15:45:06.786Z,89811.44
2023-01-06T15:47:40.415Z,89809.94
2023-01-06T15:50:16.488Z,89814.66
2023-01-06T15:52:53.687Z,89810.72
2023-01-06T15:55:25.780Z,89823.28
2023-01-06T15:58:03.910Z,89830.69
2023-01-06T16:00:47.312Z,89827.41
2023-01-06T16:03:20.934Z,89829.75
2023-01-06T16:05:51.128Z,89835.25
2023-01-06T16:08:28.376Z,89835.88
2023-01-06T16:11:16.933Z,89839.19
2023-01-06T16:13:58.355Z,89834.19
2023-01-06T16:16:32.071Z,89833.34
2023-01-06T16:19:07.566Z,89849.03
2023-01-06T16:21:34.838Z,89846.16
2023-01-06T16:24:04.890Z,89838.94
2023-01-06T16:26:40.346Z,89850.44
2023-01-06T16:29:28.941Z,89856.25
2023-01-06T16:32:01.099Z,89862.72
2023-01-06T16:34:32.082Z,89863.72
2023-01-06T16:37:00.576Z,89869.72
2023-01-06T16:39:28.732Z,89874.97
2023-01-06T16:41:58.665Z,89877.19
2023-01-06T16:44:26.419Z,89871.38
2023-01-06T16:46:53.267Z,89868.56
2023-01-06T16:49:21.649Z,89876.84
2023-01-06T16:51:49.052Z,89873.13
2023-01-06T16:54:17.449Z,89865.00
2023-01-06T16:56:45.755Z,89871.97
2023-01-06T16:59:17.753Z,89869.84
2023-01-06T17:01:47.132Z,89875.69
2023-01-06T17:04:15.272Z,89876.00
2023-01-06T17:06:43.971Z,89871.25
2023-01-06T17:09:22.526Z,89871.50
2023-01-06T17:11:50.914Z,89878.16
2023-01-06T17:14:20.778Z,89878.16
2023-01-06T17:16:48.149Z,89892.84
2023-01-06T17:19:26.816Z,89886.31
2023-01-06T17:22:06.537Z,89892.97
2023-01-06T17:24:35.170Z,89907.91
2023-01-06T17:27:07.898Z,89903.53
2023-01-06T17:29:37.260Z,89903.81
2023-01-06T17:32:14.686Z,89907.72
2023-01-06T17:34:41.629Z,89905.94
2023-01-06T17:37:22.215Z,89912.06
2023-01-06T17:39:49.817Z,89915.50
2023-01-06T17:42:16.706Z,89916.03
2023-01-06T17:44:46.475Z,89915.69
2023-01-06T17:47:16.548Z,89926.25
2023-01-06T17:50:31.625Z,89933.59
2023-01-06T17:53:20.253Z,89929.97
2023-01-06T17:55:49.934Z,89929.13
2023-01-06T17:58:19.451Z,89931.63
2023-01-06T18:00:46.440Z,89926.63
2023-01-06T18:03:19.211Z,89925.53
2023-01-06T18:05:46.158Z,89917.88
2023-01-06T18:08:15.998Z,89934.09
2023-01-06T18:10:51.332Z,89931.63
2023-01-06T18:13:26.362Z,89932.53
2023-01-06T18:15:57.243Z,89927.53
2023-01-06T18:18:28.212Z,89937.78
2023-01-06T18:21:23.546Z,89945.00
2023-01-06T18:23:52.338Z,89938.16
2023-01-06T18:26:28.386Z,89925.75
2023-01-06T18:29:15.706Z,89937.22
2023-01-06T18:31:42.779Z,89940.53
2023-01-06T18:34:26.182Z,89946.56
2023-01-06T18:36:54.289Z,89948.63
2023-01-06T18:39:31.230Z,89939.66
2023-01-06T18:42:31.529Z,89946.59
2023-01-06T18:45:02.998Z,89952.56
2023-01-06T18:47:31.006Z,89949.00
2023-01-06T18:50:11.635Z,89953.84
2023-01-06T18:52:48.459Z,89956.28
2023-01-06T18:55:28.008Z,89969.53
2023-01-06T18:57:59.235Z,89964.47
2023-01-06T19:00:33.721Z,89968.72
2023-01-06T19:03:23.836Z,89979.28
2023-01-06T19:05:53.970Z,89967.78
2023-01-06T19:08:27.143Z,89974.53
2023-01-06T19:10:53.963Z,89980.41
2023-01-06T19:13:28.806Z,89991.22
2023-01-06T19:16:02.454Z,89982.53
2023-01-06T19:18:34.052Z,89987.50
2023-01-06T19:21:03.566Z,90004.75
2023-01-06T19:23:32.241Z,89997.66
2023-01-06T19:26:35.272Z,89997.38
2023-01-06T19:29:06.692Z,90011.63
2023-01-06T19:31:33.598Z,90008.91
2023-01-06T19:34:02.543Z,90007.72
2023-01-06T19:36:39.524Z,90003.09
2023-01-06T19:39:23.373Z,90005.19
2023-01-06T19:41:56.028Z,89998.41
2023-01-06T19:44:32.024Z,90003.19
2023-01-06T19:47:00.700Z,89994.41
2023-01-06T19:49:38.652Z,90000.38
2023-01-06T19:52:34.209Z,90004.28
2023-01-06T19:55:22.103Z,90009.00
2023-01-06T19:58:11.410Z,90013.78
2023-01-06T20:00:49.970Z,90015.69
2023-01-06T20:03:30.893Z,90028.81
2023-01-06T20:05:57.759Z,90012.28
2023-01-06T20:08:24.807Z,90017.50
2023-01-06T20:10:51.830Z,90023.47
2023-01-06T20:13:18.982Z,90022.66
2023-01-06T20:15:45.855Z,90026.28
2023-01-06T20:18:12.828Z,90027.66
2023-01-06T20:20:39.949Z,90040.91
2023-01-06T20:23:06.784Z,90039.34
2023-01-06T20:25:33.807Z,90043.34
2023-01-06T20:28:00.973Z,90044.38
2023-01-06T20:30:27.901Z,90039.75
2023-01-06T20:32:54.795Z,90043.38
2023-01-06T20:35:21.822Z,90047.41
2023-01-06T20:37:48.824Z,90041.31
2023-01-06T20:40:15.757Z,90042.31
2023-01-06T20:42:42.698Z,90034.66
2023-01-06T20:45:10.715Z,90041.66
2023-01-06T20:47:37.541Z,90048.19
2023-01-06T20:50:05.499Z,90051.53
2023-01-06T20:52:32.503Z,90050.34
2023-01-06T20:55:00.518Z,90060.38
2023-01-06T20:57:27.376Z,90048.13
2023-01-06T20:59:54.330Z,90055.75
2023-01-06T21:02:21.393Z,90059.03
2023-01-06T21:04:48.608Z,90049.28
2023-01-06T21:07:15.506Z,90056.00
2023-01-06T21:09:42.507Z,90058.13
2023-01-06T21:12:09.539Z,90064.13
2023-01-06T21:14:36.460Z,90061.41
2023-01-06T21:17:03.447Z,90058.03
2023-01-06T21:19:30.526Z,90062.22
2023-01-06T21:21:59.555Z,90065.22
2023-01-06T21:24:27.048Z,90063.84
2023-01-06T21:26:54.091Z,90065.00
2023-01-06T21:29:21.277Z,90048.59
2023-01-06T21:31:48.254Z,90052.06
2023-01-06T21:34:15.202Z,90061.78
2023-01-06T21:36:42.066Z,90066.03
2023-01-06T21:39:09.002Z,90056.19
2023-01-06T21:41:36.103Z,90063.63
2023-01-06T21:44:03.019Z,90059.78
2023-01-06T21:46:29.936Z,90066.56
2023-01-06T21:48:56.905Z,90076.09
2023-01-06T21:51:24.123Z,90079.19
2023-01-06T21:53:51.251Z,90073.88
2023-01-06T21:56:18.211Z,90070.94
2023-01-06T21:58:45.276Z,90067.59
2023-01-06T22:01:12.237Z,90060.97
2023-01-06T22:03:39.232Z,90069.66
2023-01-06T22:06:06.536Z,90067.28
2023-01-06T22:08:33.599Z,90061.53
2023-01-06T22:11:00.613Z,90065.84
2023-01-06T22:13:29.133Z,90058.91
2023-01-06T22:15:56.142Z,90064.19
2023-01-06T22:18:23.299Z,90059.97
2023-01-06T22:20:50.847Z,90053.78
2023-01-06T22:23:21.133Z,90060.72
2023-01-06T22:25:48.088Z,90063.88
2023-01-06T22:28:15.004Z,90067.84
2023-01-06T22:30:41.991Z,90073.75
2023-01-06T22:33:09.242Z,90090.25
2023-01-06T22:35:36.507Z,90086.31
2023-01-06T22:38:03.450Z,90090.25
2023-01-06T22:40:30.331Z,90090.66
2023-01-06T22:42:57.219Z,90090.38
2023-01-06T22:45:24.197Z,90093.66
2023-01-06T22:47:51.184Z,90094.75
2023-01-06T22:50:18.036Z,90099.25
2023-01-06T22:52:44.989Z,90105.13
2023-01-06T22:55:11.974Z,90103.81
2023-01-06T22:57:39.037Z,90098.41
2023-01-06T23:00:15.607Z,90099.97
2023-01-06T23:02:43.160Z,90100.53
2023-01-06T23:05:11.027Z,90102.59
2023-01-06T23:07:39.649Z,90103.63
2023-01-06T23:10:07.582Z,90103.19
2023-01-06T23:12:38.797Z,90110.97
2023-01-06T23:15:06.661Z,90104.91
2023-01-06T23:17:33.867Z,90098.47
2023-01-06T23:20:00.848Z,90100.53
2023-01-06T23:22:27.730Z,90105.94
2023-01-06T23:24:54.711Z,90098.06
2023-01-06T23:27:21.597Z,90107.00
2023-01-06T23:29:48.572Z,90114.47
2023-01-06T23:32:15.543Z,90111.66
2023-01-06T23:34:42.438Z,90115.69
2023-01-06T23:37:09.400Z,90111.78
2023-01-06T23:39:36.312Z,90124.91
2023-01-06T23:42:05.932Z,90116.97
2023-01-06T23:44:32.838Z,90112.19
2023-01-06T23:46:59.701Z,90126.69
2023-01-06T23:49:26.646Z,90130.22
2023-01-06T23:51:53.504Z,90133.19
2023-01-06T23:54:20.579Z,90132.97
2023-01-06T23:56:47.441Z,90131.19
2023-01-06T23:59:14.539Z,90126.03
